sensor_id;sensor_type;location;lat;lon;timestamp;pressure;altitude;pressure_sealevel;temperature;humidity
6851;BME280;3464;42.728;23.296;2022-07-23T00:00:15;95530.50;;;22.60;64.75
6851;BME280;3464;42.728;23.296;2022-07-23T00:03:04;95538.12;;;22.50;65.58
6851;BME280;3464;42.728;23.296;2022-07-23T00:05:53;95542.28;;;22.27;66.50
6851;BME280;3464;42.728;23.296;2022-07-23T00:08:42;95543.50;;;22.42;67.04
6851;BME280;3464;42.728;23.296;2022-07-23T00:11:32;95543.28;;;22.36;67.73
6851;BME280;3464;42.728;23.296;2022-07-23T00:14:21;95544.62;;;22.20;67.26
6851;BME280;3464;42.728;23.296;2022-07-23T00:17:10;95543.52;;;22.15;67.83
6851;BME280;3464;42.728;23.296;2022-07-23T00:19:59;95547.87;;;21.85;68.98
6851;BME280;3464;42.728;23.296;2022-07-23T00:22:54;95548.55;;;21.91;69.27
6851;BME280;3464;42.728;23.296;2022-07-23T00:25:43;95546.81;;;21.79;70.22
6851;BME280;3464;42.728;23.296;2022-07-23T00:28:32;95549.06;;;21.59;71.52
6851;BME280;3464;42.728;23.296;2022-07-23T00:31:21;95548.33;;;21.70;72.55
6851;BME280;3464;42.728;23.296;2022-07-23T00:34:11;95545.67;;;21.73;72.73
6851;BME280;3464;42.728;23.296;2022-07-23T00:37:00;95547.41;;;21.58;73.40
6851;BME280;3464;42.728;23.296;2022-07-23T00:39:50;95552.91;;;21.59;73.40
6851;BME280;3464;42.728;23.296;2022-07-23T00:42:40;95553.69;;;21.47;74.40
6851;BME280;3464;42.728;23.296;2022-07-23T00:45:29;95542.45;;;21.52;74.74
6851;BME280;3464;42.728;23.296;2022-07-23T00:48:18;95548.26;;;21.44;75.78
6851;BME280;3464;42.728;23.296;2022-07-23T00:51:07;95551.63;;;21.45;76.26
6851;BME280;3464;42.728;23.296;2022-07-23T00:53:56;95551.61;;;21.75;74.84
6851;BME280;3464;42.728;23.296;2022-07-23T00:56:46;95550.56;;;21.82;74.45
6851;BME280;3464;42.728;23.296;2022-07-23T00:59:35;95551.66;;;21.72;74.00
6851;BME280;3464;42.728;23.296;2022-07-23T01:02:25;95556.50;;;21.53;75.21
6851;BME280;3464;42.728;23.296;2022-07-23T01:05:13;95555.27;;;21.38;76.38
6851;BME280;3464;42.728;23.296;2022-07-23T01:08:03;95553.52;;;21.38;77.06
6851;BME280;3464;42.728;23.296;2022-07-23T01:10:52;95552.73;;;21.22;78.83
6851;BME280;3464;42.728;23.296;2022-07-23T01:13:42;95544.80;;;21.16;78.88
6851;BME280;3464;42.728;23.296;2022-07-23T01:16:31;95537.55;;;21.16;79.25
6851;BME280;3464;42.728;23.296;2022-07-23T01:19:20;95548.97;;;21.04;79.49
6851;BME280;3464;42.728;23.296;2022-07-23T01:22:09;95549.78;;;21.05;79.48
6851;BME280;3464;42.728;23.296;2022-07-23T01:24:59;95551.05;;;20.89;79.70
6851;BME280;3464;42.728;23.296;2022-07-23T01:27:49;95549.64;;;20.95;79.97
6851;BME280;3464;42.728;23.296;2022-07-23T01:30:37;95548.75;;;20.96;79.90
6851;BME280;3464;42.728;23.296;2022-07-23T01:33:27;95544.50;;;20.79;81.04
6851;BME280;3464;42.728;23.296;2022-07-23T01:36:17;95537.98;;;20.67;81.38
6851;BME280;3464;42.728;23.296;2022-07-23T01:39:06;95540.31;;;20.59;82.11
6851;BME280;3464;42.728;23.296;2022-07-23T01:41:54;95540.89;;;20.54;82.61
6851;BME280;3464;42.728;23.296;2022-07-23T01:44:44;95541.89;;;20.48;82.47
6851;BME280;3464;42.728;23.296;2022-07-23T01:47:34;95543.53;;;20.51;82.54
6851;BME280;3464;42.728;23.296;2022-07-23T01:50:23;95542.59;;;20.53;82.77
6851;BME280;3464;42.728;23.296;2022-07-23T01:53:13;95540.58;;;20.50;83.09
6851;BME280;3464;42.728;23.296;2022-07-23T01:56:02;95544.06;;;20.46;82.91
6851;BME280;3464;42.728;23.296;2022-07-23T01:58:51;95537.21;;;20.64;82.08
6851;BME280;3464;42.728;23.296;2022-07-23T02:01:40;95545.10;;;20.39;84.06
6851;BME280;3464;42.728;23.296;2022-07-23T02:04:30;95544.19;;;20.24;87.02
6851;BME280;3464;42.728;23.296;2022-07-23T02:07:19;95547.25;;;20.02;89.13
6851;BME280;3464;42.728;23.296;2022-07-23T02:10:09;95550.77;;;19.79;92.01
6851;BME280;3464;42.728;23.296;2022-07-23T02:12:58;95553.30;;;19.62;94.37
6851;BME280;3464;42.728;23.296;2022-07-23T02:15:47;95552.19;;;19.73;95.22
6851;BME280;3464;42.728;23.296;2022-07-23T02:18:35;95547.34;;;19.80;96.28
6851;BME280;3464;42.728;23.296;2022-07-23T02:21:24;95546.42;;;19.65;97.33
6851;BME280;3464;42.728;23.296;2022-07-23T02:24:13;95552.12;;;19.57;97.92
6851;BME280;3464;42.728;23.296;2022-07-23T02:27:03;95558.48;;;19.38;99.60
6851;BME280;3464;42.728;23.296;2022-07-23T02:29:52;95553.80;;;19.37;100.00
6851;BME280;3464;42.728;23.296;2022-07-23T02:32:40;95556.02;;;19.54;100.00
6851;BME280;3464;42.728;23.296;2022-07-23T02:35:29;95554.61;;;19.60;100.00
6851;BME280;3464;42.728;23.296;2022-07-23T02:38:18;95550.31;;;19.42;100.00
6851;BME280;3464;42.728;23.296;2022-07-23T02:41:08;95557.05;;;19.45;100.00
6851;BME280;3464;42.728;23.296;2022-07-23T02:43:57;95558.30;;;19.46;100.00
6851;BME280;3464;42.728;23.296;2022-07-23T02:46:46;95554.14;;;19.42;100.00
6851;BME280;3464;42.728;23.296;2022-07-23T02:49:36;95556.77;;;19.59;100.00
6851;BME280;3464;42.728;23.296;2022-07-23T02:52:25;95561.61;;;19.52;100.00
6851;BME280;3464;42.728;23.296;2022-07-23T02:55:15;95561.22;;;19.68;100.00
6851;BME280;3464;42.728;23.296;2022-07-23T02:58:04;95567.97;;;19.72;100.00
6851;BME280;3464;42.728;23.296;2022-07-23T03:00:54;95575.13;;;19.55;100.00
6851;BME280;3464;42.728;23.296;2022-07-23T03:03:44;95581.20;;;19.69;100.00
6851;BME280;3464;42.728;23.296;2022-07-23T03:06:33;95573.41;;;19.76;100.00
6851;BME280;3464;42.728;23.296;2022-07-23T03:09:23;95580.64;;;19.76;100.00
6851;BME280;3464;42.728;23.296;2022-07-23T03:12:12;95577.86;;;19.86;100.00
6851;BME280;3464;42.728;23.296;2022-07-23T03:15:01;95577.06;;;20.03;98.37
6851;BME280;3464;42.728;23.296;2022-07-23T03:17:51;95584.95;;;20.13;96.01
6851;BME280;3464;42.728;23.296;2022-07-23T03:20:40;95584.38;;;19.99;97.28
6851;BME280;3464;42.728;23.296;2022-07-23T03:23:29;95589.52;;;19.78;98.43
6851;BME280;3464;42.728;23.296;2022-07-23T03:26:19;95587.75;;;19.63;100.00
6851;BME280;3464;42.728;23.296;2022-07-23T03:29:09;95598.00;;;19.81;98.74
6851;BME280;3464;42.728;23.296;2022-07-23T03:31:58;95588.04;;;20.44;94.58
6851;BME280;3464;42.728;23.296;2022-07-23T03:34:47;95593.79;;;20.17;94.30
6851;BME280;3464;42.728;23.296;2022-07-23T03:37:36;95597.31;;;19.92;95.62
6851;BME280;3464;42.728;23.296;2022-07-23T03:40:26;95599.83;;;20.14;95.85
6851;BME280;3464;42.728;23.296;2022-07-23T03:43:14;95596.42;;;20.14;93.88
6851;BME280;3464;42.728;23.296;2022-07-23T03:46:03;95599.89;;;20.10;94.61
6851;BME280;3464;42.728;23.296;2022-07-23T03:48:52;95593.68;;;21.38;87.09
6851;BME280;3464;42.728;23.296;2022-07-23T03:51:41;95594.17;;;21.80;83.10
6851;BME280;3464;42.728;23.296;2022-07-23T03:54:31;95595.21;;;22.69;78.17
6851;BME280;3464;42.728;23.296;2022-07-23T03:57:20;95586.30;;;23.17;72.02
6851;BME280;3464;42.728;23.296;2022-07-23T04:00:10;95592.31;;;23.75;69.23
6851;BME280;3464;42.728;23.296;2022-07-23T04:02:59;95588.60;;;23.25;70.23
6851;BME280;3464;42.728;23.296;2022-07-23T04:05:49;95593.71;;;24.59;66.38
6851;BME280;3464;42.728;23.296;2022-07-23T04:08:39;95591.12;;;25.12;61.22
6851;BME280;3464;42.728;23.296;2022-07-23T04:11:28;95602.16;;;24.63;62.51
6851;BME280;3464;42.728;23.296;2022-07-23T04:14:17;95595.53;;;24.57;62.61
6851;BME280;3464;42.728;23.296;2022-07-23T04:17:06;95596.23;;;26.18;57.99
6851;BME280;3464;42.728;23.296;2022-07-23T04:19:55;95602.33;;;24.80;60.76
6851;BME280;3464;42.728;23.296;2022-07-23T04:22:44;95600.39;;;25.06;59.68
6851;BME280;3464;42.728;23.296;2022-07-23T04:25:32;95601.75;;;25.14;60.91
6851;BME280;3464;42.728;23.296;2022-07-23T04:28:21;95592.81;;;27.05;54.84
6851;BME280;3464;42.728;23.296;2022-07-23T04:31:11;95598.69;;;26.47;56.03
6851;BME280;3464;42.728;23.296;2022-07-23T04:34:00;95600.77;;;28.00;51.80
6851;BME280;3464;42.728;23.296;2022-07-23T04:36:49;95597.08;;;27.72;50.52
6851;BME280;3464;42.728;23.296;2022-07-23T04:39:38;95592.67;;;28.37;48.79
6851;BME280;3464;42.728;23.296;2022-07-23T04:42:26;95597.66;;;29.73;46.60
6851;BME280;3464;42.728;23.296;2022-07-23T04:45:15;95599.48;;;28.62;48.40
6851;BME280;3464;42.728;23.296;2022-07-23T04:48:04;95604.58;;;29.66;45.50
6851;BME280;3464;42.728;23.296;2022-07-23T04:50:54;95604.02;;;30.37;43.97
6851;BME280;3464;42.728;23.296;2022-07-23T04:53:42;95605.97;;;31.52;42.21
6851;BME280;3464;42.728;23.296;2022-07-23T04:56:32;95606.20;;;32.53;40.00
6851;BME280;3464;42.728;23.296;2022-07-23T04:59:21;95611.53;;;30.68;42.51
6851;BME280;3464;42.728;23.296;2022-07-23T05:02:10;95606.95;;;31.75;40.97
6851;BME280;3464;42.728;23.296;2022-07-23T05:04:59;95603.87;;;31.69;39.60
6851;BME280;3464;42.728;23.296;2022-07-23T05:07:49;95601.25;;;33.43;37.35
6851;BME280;3464;42.728;23.296;2022-07-23T05:10:39;95598.81;;;35.25;35.33
6851;BME280;3464;42.728;23.296;2022-07-23T05:13:28;95596.83;;;36.97;32.19
6851;BME280;3464;42.728;23.296;2022-07-23T05:16:16;95598.42;;;37.47;30.96
6851;BME280;3464;42.728;23.296;2022-07-23T05:19:06;95595.39;;;35.91;32.38
6851;BME280;3464;42.728;23.296;2022-07-23T05:21:56;95599.33;;;36.75;31.75
6851;BME280;3464;42.728;23.296;2022-07-23T05:24:45;95603.45;;;35.37;33.89
6851;BME280;3464;42.728;23.296;2022-07-23T05:27:36;95601.75;;;35.98;32.80
6851;BME280;3464;42.728;23.296;2022-07-23T05:30:25;95602.23;;;36.66;31.75
6851;BME280;3464;42.728;23.296;2022-07-23T05:33:15;95606.14;;;35.56;33.27
6851;BME280;3464;42.728;23.296;2022-07-23T05:36:08;95606.02;;;36.97;31.95
6851;BME280;3464;42.728;23.296;2022-07-23T05:38:56;95608.97;;;38.61;29.88
6851;BME280;3464;42.728;23.296;2022-07-23T05:41:46;95604.06;;;39.84;28.17
6851;BME280;3464;42.728;23.296;2022-07-23T05:44:36;95606.67;;;38.80;29.11
6851;BME280;3464;42.728;23.296;2022-07-23T05:47:25;95605.39;;;38.75;28.79
6851;BME280;3464;42.728;23.296;2022-07-23T05:50:14;95601.11;;;40.21;27.40
6851;BME280;3464;42.728;23.296;2022-07-23T05:53:03;95597.33;;;39.25;27.62
6851;BME280;3464;42.728;23.296;2022-07-23T05:55:51;95603.59;;;38.93;27.66
6851;BME280;3464;42.728;23.296;2022-07-23T05:58:42;95598.77;;;41.65;25.75
6851;BME280;3464;42.728;23.296;2022-07-23T06:01:31;95598.79;;;42.86;24.50
6851;BME280;3464;42.728;23.296;2022-07-23T06:04:21;95592.76;;;42.69;24.49
6851;BME280;3464;42.728;23.296;2022-07-23T06:07:11;95596.94;;;37.85;29.11
6851;BME280;3464;42.728;23.296;2022-07-23T06:10:03;95588.80;;;40.46;26.45
6851;BME280;3464;42.728;23.296;2022-07-23T06:12:54;95595.29;;;41.73;25.51
6851;BME280;3464;42.728;23.296;2022-07-23T06:15:44;95587.56;;;39.82;27.24
6851;BME280;3464;42.728;23.296;2022-07-23T06:18:33;95599.17;;;37.48;29.82
6851;BME280;3464;42.728;23.296;2022-07-23T06:21:22;95594.89;;;38.34;29.10
6851;BME280;3464;42.728;23.296;2022-07-23T06:24:11;95589.29;;;41.07;26.03
6851;BME280;3464;42.728;23.296;2022-07-23T06:27:01;95590.11;;;41.44;25.68
6851;BME280;3464;42.728;23.296;2022-07-23T06:29:51;95592.45;;;39.34;27.80
6851;BME280;3464;42.728;23.296;2022-07-23T06:32:40;95590.26;;;37.40;29.44
6851;BME280;3464;42.728;23.296;2022-07-23T06:35:30;95577.94;;;39.48;28.25
6851;BME280;3464;42.728;23.296;2022-07-23T06:38:19;95586.63;;;42.73;24.63
6851;BME280;3464;42.728;23.296;2022-07-23T06:41:09;95583.06;;;40.42;26.83
6851;BME280;3464;42.728;23.296;2022-07-23T06:43:58;95588.19;;;37.44;29.99
6851;BME280;3464;42.728;23.296;2022-07-23T06:46:47;95585.55;;;40.68;27.34
6851;BME280;3464;42.728;23.296;2022-07-23T06:49:37;95587.18;;;40.94;26.68
6851;BME280;3464;42.728;23.296;2022-07-23T06:52:26;95580.38;;;38.84;28.21
6851;BME280;3464;42.728;23.296;2022-07-23T06:55:14;95582.53;;;37.05;30.40
6851;BME280;3464;42.728;23.296;2022-07-23T06:58:04;95579.78;;;38.72;28.86
6851;BME280;3464;42.728;23.296;2022-07-23T07:00:52;95579.50;;;37.24;30.17
6851;BME280;3464;42.728;23.296;2022-07-23T07:03:41;95583.25;;;38.64;30.43
6851;BME280;3464;42.728;23.296;2022-07-23T07:06:31;95572.38;;;40.59;27.87
6851;BME280;3464;42.728;23.296;2022-07-23T07:09:20;95569.62;;;44.05;24.71
6851;BME280;3464;42.728;23.296;2022-07-23T07:12:08;95579.74;;;40.02;27.62
6851;BME280;3464;42.728;23.296;2022-07-23T07:14:57;95568.16;;;39.19;28.28
6851;BME280;3464;42.728;23.296;2022-07-23T07:17:48;95571.49;;;36.73;30.57
6851;BME280;3464;42.728;23.296;2022-07-23T07:20:38;95573.44;;;37.70;30.25
6851;BME280;3464;42.728;23.296;2022-07-23T07:23:27;95564.89;;;36.10;32.85
6851;BME280;3464;42.728;23.296;2022-07-23T07:26:17;95562.31;;;41.76;26.02
6851;BME280;3464;42.728;23.296;2022-07-23T07:29:06;95564.02;;;41.65;25.54
6851;BME280;3464;42.728;23.296;2022-07-23T07:31:55;95560.03;;;42.24;25.69
6851;BME280;3464;42.728;23.296;2022-07-23T07:34:44;95561.20;;;41.42;26.03
6851;BME280;3464;42.728;23.296;2022-07-23T07:37:34;95555.23;;;42.58;24.85
6851;BME280;3464;42.728;23.296;2022-07-23T07:40:23;95554.56;;;39.91;26.98
6851;BME280;3464;42.728;23.296;2022-07-23T07:43:13;95559.90;;;36.85;30.77
6851;BME280;3464;42.728;23.296;2022-07-23T07:46:03;95558.34;;;36.59;30.70
6851;BME280;3464;42.728;23.296;2022-07-23T07:48:52;95557.94;;;37.35;29.96
6851;BME280;3464;42.728;23.296;2022-07-23T07:51:41;95551.72;;;41.92;25.42
6851;BME280;3464;42.728;23.296;2022-07-23T07:54:30;95541.22;;;43.77;23.65
6851;BME280;3464;42.728;23.296;2022-07-23T07:57:20;95538.91;;;42.77;24.05
6851;BME280;3464;42.728;23.296;2022-07-23T08:00:10;95546.44;;;38.41;27.89
6851;BME280;3464;42.728;23.296;2022-07-23T08:02:59;95548.41;;;40.58;26.79
6851;BME280;3464;42.728;23.296;2022-07-23T08:05:48;95544.26;;;38.19;28.52
6851;BME280;3464;42.728;23.296;2022-07-23T08:08:37;95542.09;;;37.73;29.66
6851;BME280;3464;42.728;23.296;2022-07-23T08:11:26;95540.00;;;41.07;25.53
6851;BME280;3464;42.728;23.296;2022-07-23T08:14:15;95538.98;;;41.00;26.35
6851;BME280;3464;42.728;23.296;2022-07-23T08:17:04;95544.44;;;34.55;33.12
6851;BME280;3464;42.728;23.296;2022-07-23T08:19:53;95539.28;;;34.86;32.87
6851;BME280;3464;42.728;23.296;2022-07-23T08:25:52;95535.22;;;33.75;34.36
6851;BME280;3464;42.728;23.296;2022-07-23T08:28:42;95531.23;;;34.34;33.82
6851;BME280;3464;42.728;23.296;2022-07-23T08:31:31;95523.47;;;34.82;34.27
6851;BME280;3464;42.728;23.296;2022-07-23T08:34:21;95523.98;;;35.58;32.99
6851;BME280;3464;42.728;23.296;2022-07-23T08:37:10;95525.13;;;36.24;32.37
6851;BME280;3464;42.728;23.296;2022-07-23T08:40:00;95523.17;;;37.55;30.21
6851;BME280;3464;42.728;23.296;2022-07-23T08:42:50;95525.74;;;36.18;31.98
6851;BME280;3464;42.728;23.296;2022-07-23T08:45:40;95521.13;;;34.47;34.31
6851;BME280;3464;42.728;23.296;2022-07-23T08:48:29;95519.41;;;34.47;34.36
6851;BME280;3464;42.728;23.296;2022-07-23T08:51:18;95520.47;;;35.12;32.74
6851;BME280;3464;42.728;23.296;2022-07-23T08:54:07;95517.55;;;34.85;33.73
6851;BME280;3464;42.728;23.296;2022-07-23T08:56:57;95512.98;;;34.19;34.07
6851;BME280;3464;42.728;23.296;2022-07-23T08:59:47;95507.53;;;34.32;34.01
6851;BME280;3464;42.728;23.296;2022-07-23T09:02:38;95509.19;;;34.91;34.21
6851;BME280;3464;42.728;23.296;2022-07-23T09:05:28;95506.38;;;35.50;32.69
6851;BME280;3464;42.728;23.296;2022-07-23T09:08:21;95508.43;;;34.90;33.47
6851;BME280;3464;42.728;23.296;2022-07-23T09:11:10;95500.70;;;35.24;33.29
6851;BME280;3464;42.728;23.296;2022-07-23T09:13:58;95496.69;;;34.28;34.44
6851;BME280;3464;42.728;23.296;2022-07-23T09:16:48;95508.76;;;33.74;34.74
6851;BME280;3464;42.728;23.296;2022-07-23T09:19:37;95506.47;;;33.25;34.97
6851;BME280;3464;42.728;23.296;2022-07-23T09:22:27;95502.94;;;33.81;34.71
6851;BME280;3464;42.728;23.296;2022-07-23T09:25:18;95501.77;;;34.92;34.05
6851;BME280;3464;42.728;23.296;2022-07-23T09:28:07;95498.63;;;34.29;34.31
6851;BME280;3464;42.728;23.296;2022-07-23T09:30:57;95495.66;;;34.44;34.21
6851;BME280;3464;42.728;23.296;2022-07-23T09:33:47;95500.77;;;34.56;33.85
6851;BME280;3464;42.728;23.296;2022-07-23T09:36:36;95492.14;;;34.02;33.98
6851;BME280;3464;42.728;23.296;2022-07-23T09:39:30;95486.92;;;34.39;33.13
6851;BME280;3464;42.728;23.296;2022-07-23T09:42:23;95486.30;;;33.82;33.96
6851;BME280;3464;42.728;23.296;2022-07-23T09:45:11;95485.92;;;33.49;34.27
6851;BME280;3464;42.728;23.296;2022-07-23T09:50:55;95476.17;;;34.16;32.28
6851;BME280;3464;42.728;23.296;2022-07-23T09:53:44;95478.23;;;34.70;31.92
6851;BME280;3464;42.728;23.296;2022-07-23T09:56:33;95475.20;;;34.44;32.84
6851;BME280;3464;42.728;23.296;2022-07-23T09:59:23;95470.47;;;34.32;32.46
6851;BME280;3464;42.728;23.296;2022-07-23T10:02:12;95466.84;;;34.40;31.67
6851;BME280;3464;42.728;23.296;2022-07-23T10:05:01;95460.42;;;35.36;29.45
6851;BME280;3464;42.728;23.296;2022-07-23T10:07:50;95455.05;;;35.38;29.30
6851;BME280;3464;42.728;23.296;2022-07-23T10:10:40;95457.74;;;35.01;29.61
6851;BME280;3464;42.728;23.296;2022-07-23T10:13:30;95452.16;;;35.15;29.99
6851;BME280;3464;42.728;23.296;2022-07-23T10:16:24;95451.47;;;35.34;29.51
6851;BME280;3464;42.728;23.296;2022-07-23T10:19:14;95444.37;;;35.52;29.67
6851;BME280;3464;42.728;23.296;2022-07-23T10:22:07;95440.34;;;35.86;29.00
6851;BME280;3464;42.728;23.296;2022-07-23T10:25:01;95444.98;;;35.78;27.66
6851;BME280;3464;42.728;23.296;2022-07-23T10:28:03;95438.68;;;34.95;28.45
6851;BME280;3464;42.728;23.296;2022-07-23T10:31:00;95429.81;;;34.96;28.46
6851;BME280;3464;42.728;23.296;2022-07-23T10:37:17;95434.43;;;34.47;28.72
6851;BME280;3464;42.728;23.296;2022-07-23T10:40:14;95429.21;;;35.39;28.59
6851;BME280;3464;42.728;23.296;2022-07-23T10:43:03;95430.48;;;34.73;28.81
6851;BME280;3464;42.728;23.296;2022-07-23T10:45:52;95422.17;;;35.34;27.08
6851;BME280;3464;42.728;23.296;2022-07-23T10:48:41;95425.31;;;35.63;25.16
6851;BME280;3464;42.728;23.296;2022-07-23T10:51:30;95421.33;;;35.84;25.14
6851;BME280;3464;42.728;23.296;2022-07-23T10:54:34;95411.48;;;35.47;26.12
6851;BME280;3464;42.728;23.296;2022-07-23T10:57:24;95408.05;;;35.51;25.76
6851;BME280;3464;42.728;23.296;2022-07-23T11:00:21;95406.41;;;34.85;26.13
6851;BME280;3464;42.728;23.296;2022-07-23T11:06:04;95401.41;;;35.52;24.86
6851;BME280;3464;42.728;23.296;2022-07-23T11:09:29;95398.23;;;34.99;25.42
6851;BME280;3464;42.728;23.296;2022-07-23T11:15:18;95383.20;;;35.41;24.85
6851;BME280;3464;42.728;23.296;2022-07-23T11:18:08;95383.27;;;36.08;24.38
6851;BME280;3464;42.728;23.296;2022-07-23T11:21:00;95376.09;;;35.96;24.78
6851;BME280;3464;42.728;23.296;2022-07-23T11:23:57;95374.34;;;35.52;24.73
6851;BME280;3464;42.728;23.296;2022-07-23T11:26:53;95375.31;;;35.61;24.77
6851;BME280;3464;42.728;23.296;2022-07-23T11:29:41;95370.84;;;35.67;24.28
6851;BME280;3464;42.728;23.296;2022-07-23T11:32:32;95368.72;;;35.71;24.18
6851;BME280;3464;42.728;23.296;2022-07-23T11:35:27;95370.93;;;35.76;24.22
6851;BME280;3464;42.728;23.296;2022-07-23T11:41:12;95363.83;;;35.67;24.18
6851;BME280;3464;42.728;23.296;2022-07-23T11:44:01;95364.48;;;35.55;23.99
6851;BME280;3464;42.728;23.296;2022-07-23T11:46:55;95359.16;;;36.38;23.37
6851;BME280;3464;42.728;23.296;2022-07-23T11:49:54;95349.64;;;36.75;22.45
6851;BME280;3464;42.728;23.296;2022-07-23T11:52:47;95351.63;;;36.72;22.75
6851;BME280;3464;42.728;23.296;2022-07-23T11:55:36;95342.69;;;36.51;22.23
6851;BME280;3464;42.728;23.296;2022-07-23T11:58:25;95354.41;;;35.80;23.03
6851;BME280;3464;42.728;23.296;2022-07-23T12:01:14;95348.44;;;36.41;22.23
6851;BME280;3464;42.728;23.296;2022-07-23T12:04:03;95349.44;;;36.58;22.06
6851;BME280;3464;42.728;23.296;2022-07-23T12:06:51;95345.87;;;36.72;22.53
6851;BME280;3464;42.728;23.296;2022-07-23T12:09:43;95341.27;;;36.00;22.87
6851;BME280;3464;42.728;23.296;2022-07-23T12:12:37;95346.08;;;36.84;22.58
6851;BME280;3464;42.728;23.296;2022-07-23T12:15:27;95340.36;;;37.12;21.90
6851;BME280;3464;42.728;23.296;2022-07-23T12:18:18;95336.09;;;37.20;20.28
6851;BME280;3464;42.728;23.296;2022-07-23T12:21:06;95339.42;;;36.76;19.95
6851;BME280;3464;42.728;23.296;2022-07-23T12:24:04;95335.67;;;36.79;20.67
6851;BME280;3464;42.728;23.296;2022-07-23T12:27:07;95325.83;;;36.90;21.53
6851;BME280;3464;42.728;23.296;2022-07-23T12:29:35;95323.58;;;37.63;20.68
6851;BME280;3464;42.728;23.296;2022-07-23T12:32:25;95322.16;;;37.51;21.43
6851;BME280;3464;42.728;23.296;2022-07-23T12:35:14;95321.77;;;37.55;21.12
6851;BME280;3464;42.728;23.296;2022-07-23T12:38:05;95322.20;;;37.14;21.09
6851;BME280;3464;42.728;23.296;2022-07-23T12:40:55;95308.19;;;37.28;21.13
6851;BME280;3464;42.728;23.296;2022-07-23T12:43:44;95313.22;;;36.85;21.83
6851;BME280;3464;42.728;23.296;2022-07-23T12:46:33;95309.89;;;36.88;21.81
6851;BME280;3464;42.728;23.296;2022-07-23T12:49:25;95309.20;;;36.53;20.52
6851;BME280;3464;42.728;23.296;2022-07-23T12:52:15;95306.70;;;36.38;19.53
6851;BME280;3464;42.728;23.296;2022-07-23T12:55:04;95308.30;;;36.58;20.34
6851;BME280;3464;42.728;23.296;2022-07-23T12:58:02;95305.91;;;36.93;19.04
6851;BME280;3464;42.728;23.296;2022-07-23T13:00:52;95295.73;;;37.12;19.23
6851;BME280;3464;42.728;23.296;2022-07-23T13:03:41;95298.05;;;36.42;19.88
6851;BME280;3464;42.728;23.296;2022-07-23T13:06:31;95294.73;;;36.95;20.28
6851;BME280;3464;42.728;23.296;2022-07-23T13:09:21;95291.39;;;36.85;20.68
6851;BME280;3464;42.728;23.296;2022-07-23T13:12:10;95286.38;;;36.63;20.50
6851;BME280;3464;42.728;23.296;2022-07-23T13:14:59;95282.94;;;36.91;19.97
6851;BME280;3464;42.728;23.296;2022-07-23T13:17:48;95291.06;;;37.29;19.70
6851;BME280;3464;42.728;23.296;2022-07-23T13:20:37;95290.03;;;37.08;20.05
6851;BME280;3464;42.728;23.296;2022-07-23T13:23:26;95283.30;;;37.14;19.36
6851;BME280;3464;42.728;23.296;2022-07-23T13:26:15;95289.31;;;36.88;20.48
6851;BME280;3464;42.728;23.296;2022-07-23T13:29:05;95287.30;;;36.26;19.41
6851;BME280;3464;42.728;23.296;2022-07-23T13:31:54;95283.20;;;36.46;19.42
6851;BME280;3464;42.728;23.296;2022-07-23T13:34:44;95281.41;;;36.52;19.36
6851;BME280;3464;42.728;23.296;2022-07-23T13:37:33;95278.54;;;36.86;20.21
6851;BME280;3464;42.728;23.296;2022-07-23T13:40:22;95270.16;;;36.88;20.24
6851;BME280;3464;42.728;23.296;2022-07-23T13:43:12;95272.23;;;36.75;21.13
6851;BME280;3464;42.728;23.296;2022-07-23T13:46:01;95270.73;;;36.58;21.20
6851;BME280;3464;42.728;23.296;2022-07-23T13:48:50;95271.45;;;36.78;20.53
6851;BME280;3464;42.728;23.296;2022-07-23T13:51:39;95271.26;;;36.76;19.08
6851;BME280;3464;42.728;23.296;2022-07-23T13:54:28;95268.44;;;36.50;20.65
6851;BME280;3464;42.728;23.296;2022-07-23T13:57:17;95270.00;;;36.29;19.88
6851;BME280;3464;42.728;23.296;2022-07-23T14:00:06;95269.17;;;36.28;21.03
6851;BME280;3464;42.728;23.296;2022-07-23T14:02:55;95261.56;;;36.40;21.60
6851;BME280;3464;42.728;23.296;2022-07-23T14:05:44;95260.22;;;36.67;20.80
6851;BME280;3464;42.728;23.296;2022-07-23T14:08:33;95257.81;;;36.52;19.95
6851;BME280;3464;42.728;23.296;2022-07-23T14:11:22;95255.03;;;36.81;20.25
6851;BME280;3464;42.728;23.296;2022-07-23T14:14:13;95256.31;;;36.94;20.72
6851;BME280;3464;42.728;23.296;2022-07-23T14:17:02;95250.25;;;36.71;21.00
6851;BME280;3464;42.728;23.296;2022-07-23T14:19:51;95257.44;;;36.55;22.19
6851;BME280;3464;42.728;23.296;2022-07-23T14:22:40;95251.47;;;36.68;21.77
6851;BME280;3464;42.728;23.296;2022-07-23T14:25:28;95259.80;;;36.67;20.42
6851;BME280;3464;42.728;23.296;2022-07-23T14:28:17;95256.75;;;36.30;20.89
6851;BME280;3464;42.728;23.296;2022-07-23T14:31:07;95259.40;;;36.62;19.94
6851;BME280;3464;42.728;23.296;2022-07-23T14:33:57;95249.59;;;36.46;20.46
6851;BME280;3464;42.728;23.296;2022-07-23T14:36:46;95246.05;;;36.56;20.12
6851;BME280;3464;42.728;23.296;2022-07-23T14:39:35;95241.43;;;36.72;20.26
6851;BME280;3464;42.728;23.296;2022-07-23T14:42:24;95241.34;;;36.36;20.91
6851;BME280;3464;42.728;23.296;2022-07-23T14:45:14;95242.13;;;36.46;21.15
6851;BME280;3464;42.728;23.296;2022-07-23T14:48:03;95235.72;;;36.45;20.38
6851;BME280;3464;42.728;23.296;2022-07-23T14:50:53;95226.94;;;36.26;21.77
6851;BME280;3464;42.728;23.296;2022-07-23T14:53:42;95235.36;;;35.83;21.85
6851;BME280;3464;42.728;23.296;2022-07-23T14:56:32;95229.19;;;35.79;21.18
6851;BME280;3464;42.728;23.296;2022-07-23T14:59:22;95227.64;;;35.91;21.32
6851;BME280;3464;42.728;23.296;2022-07-23T15:02:10;95222.50;;;36.09;21.86
6851;BME280;3464;42.728;23.296;2022-07-23T15:04:59;95221.33;;;36.07;21.42
6851;BME280;3464;42.728;23.296;2022-07-23T15:07:49;95215.95;;;35.75;21.81
6851;BME280;3464;42.728;23.296;2022-07-23T15:10:39;95222.25;;;35.74;21.53
6851;BME280;3464;42.728;23.296;2022-07-23T15:13:28;95215.56;;;35.70;21.69
6851;BME280;3464;42.728;23.296;2022-07-23T15:16:17;95215.52;;;35.85;21.77
6851;BME280;3464;42.728;23.296;2022-07-23T15:19:06;95205.38;;;36.05;21.48
6851;BME280;3464;42.728;23.296;2022-07-23T15:21:54;95212.11;;;35.98;22.04
6851;BME280;3464;42.728;23.296;2022-07-23T15:24:43;95209.16;;;35.83;22.35
6851;BME280;3464;42.728;23.296;2022-07-23T15:27:32;95209.06;;;35.98;21.62